Forestville, New York
Current Conditions -  °F | °C
As of 1:02 PM on Friday 21 Nov 2014 (Local Time) from KDKK Reporting Station
Heavy Snow Heavy Snow  
Wind Chill: 18°   Ceiling: 500
Heat Index: 25°   Visibility: 0.25mi
Dew Point: 23°   Wind: 6mph
Humidity: 92%   Direction: 280°W
Pressure: 30.4"   Gusts: NA
Location:  42.47°N, 79.18°W
Report Text: KDKK 211802Z AUTO 28005KT 1/4SM +SN FZFG VV005 M04/M05 A3040 RMK AO2 P0001 T10391050
Loading
Personal Weather Stations






























Interactive Weather Map New forecast layout! Learn more

10-Day Weather Forecast

Advertisements
Track Severe Weather on mobile